Kennicott — WCY2920 — position and weather

sailwx.info

Track history (hours):
 
Tides and Currents Weather Stations Pressure Air Temp Water Temp Dewpoint Dewpoint Depression Visibility Wind Speed Wind Dir Waves Ship Positions

Kennicott

Owner: ALASKA, STATE OF, Anchorage, AK. More information available from US FCC via Universal Licensing System and Coast Guard Vessel Documentation Center.

Last reported at 2017-Nov-14 17:14 UTC. Time now 2017-Nov-19 03:12 UTC.
Position N 54°52' W 131°01'.

Type: Ship. MMSI: 368250000.

Date/timePositionNaut miles runAvg speedWind from/ knotsBaromVisibWave heightAir tempDewpointWater temp
2017-Nov-14 17:14N 54°52' W 131°01'417.5
2017-Nov-14 17:00N 54°48' W 130°59'917.2
2017-Nov-14 16:30N 54°42' W 130°50'816.4
2017-Nov-14 16:00N 54°36' W 130°40'816.2
2017-Nov-14 15:30N 54°28' W 130°38'917.2
2017-Nov-14 15:00N 54°19' W 130°35'816.9
2017-Nov-14 14:30N 54°13' W 130°25'4 8.0
2017-Nov-14 14:00N 54°17' W 130°22'1 1.5
2017-Nov-14 13:28N 54°18' W 130°21'0 0.0
2017-Nov-14 12:58N 54°18' W 130°21'0 0.0
2017-Nov-14 12:28N 54°18' W 130°21'0 0.0
2017-Nov-14 11:58N 54°18' W 130°21'0 0.0
2017-Nov-14 11:28N 54°18' W 130°21'0 0.0
2017-Nov-14 11:00N 54°18' W 130°21'0 0.6
2017-Nov-14 10:30N 54°18' W 130°22'0 0.4
2017-Nov-14 10:00N 54°18' W 130°22'4 9.0
2017-Nov-14 09:31N 54°13' W 130°21'815.7
2017-Nov-14 09:00N 54°17' W 130°33'815.3
2017-Nov-14 08:30N 54°24' W 130°37'816.2
2017-Nov-14 08:00N 54°32' W 130°39'816.1
2017-Nov-14 07:30N 54°39' W 130°47'816.1
2017-Nov-14 07:00N 54°46' W 130°56'  
Track history (hours):
 
Tides and Currents Weather Stations Pressure Air Temp Water Temp Dewpoint Dewpoint Depression Visibility Wind Speed Wind Dir Waves Ship Positions

Kennicott

Owner: ALASKA, STATE OF, Anchorage, AK. More information available from US FCC via Universal Licensing System and Coast Guard Vessel Documentation Center.

Last reported at 2017-Nov-14 17:14 UTC. Time now 2017-Nov-19 03:12 UTC.
Position N 54°52' W 131°01'.

Type: Ship. MMSI: 368250000.

Date/timePositionNaut miles runAvg speedWind from/ knotsBaromVisibWave heightAir tempDewpointWater temp
2017-Nov-14 17:14N 54°52' W 131°01'417.5
2017-Nov-14 17:00N 54°48' W 130°59'917.2
2017-Nov-14 16:30N 54°42' W 130°50'816.4
2017-Nov-14 16:00N 54°36' W 130°40'816.2
2017-Nov-14 15:30N 54°28' W 130°38'917.2
2017-Nov-14 15:00N 54°19' W 130°35'816.9
2017-Nov-14 14:30N 54°13' W 130°25'4 8.0
2017-Nov-14 14:00N 54°17' W 130°22'1 1.5
2017-Nov-14 13:28N 54°18' W 130°21'0 0.0
2017-Nov-14 12:58N 54°18' W 130°21'0 0.0
2017-Nov-14 12:28N 54°18' W 130°21'0 0.0
2017-Nov-14 11:58N 54°18' W 130°21'0 0.0
2017-Nov-14 11:28N 54°18' W 130°21'0 0.0
2017-Nov-14 11:00N 54°18' W 130°21'0 0.6
2017-Nov-14 10:30N 54°18' W 130°22'0 0.4
2017-Nov-14 10:00N 54°18' W 130°22'4 9.0
2017-Nov-14 09:31N 54°13' W 130°21'815.7
2017-Nov-14 09:00N 54°17' W 130°33'815.3
2017-Nov-14 08:30N 54°24' W 130°37'816.2
2017-Nov-14 08:00N 54°32' W 130°39'816.1
2017-Nov-14 07:30N 54°39' W 130°47'816.1
2017-Nov-14 07:00N 54°46' W 130°56'  

Dump ship's entire track history